Time;durP1;ratioP1;P1;durP2;ratioP2;P2;SDS_P1;SDS_P2;PMS_P1;PMS_P2;Temp;Humidity;BMP_temperature;BMP_pressure;BME280_temperature;BME280_humidity;BME280_pressure;Samples;Min_cycle;Max_cycle;Signal;HPM_P1;HPM_P2
2021/09/17 00:00:42;;;;;;;19.08;17.17;;;;;;;14.09;100.00;101687.97;5261311;28;20036;-68
2021/09/17 00:03:13;;;;;;;19.63;17.65;;;;;;;14.08;100.00;101696.84;5260227;28;20479;-67
2021/09/17 00:05:45;;;;;;;20.35;18.15;;;;;;;14.11;100.00;101699.22;5260005;28;20020;-67
2021/09/17 00:08:17;;;;;;;19.42;17.42;;;;;;;14.10;100.00;101690.50;5260611;28;20041;-67
2021/09/17 00:10:48;;;;;;;20.42;18.23;;;;;;;14.10;100.00;101687.03;5259223;28;20037;-68
2021/09/17 00:13:19;;;;;;;20.48;17.90;;;;;;;14.14;100.00;101690.22;5259692;28;20098;-67
2021/09/17 00:15:51;;;;;;;20.33;17.77;;;;;;;14.09;100.00;101688.84;5259890;28;20012;-67
2021/09/17 00:18:22;;;;;;;22.23;19.95;;;;;;;14.13;100.00;101686.78;5261788;28;20033;-68
2021/09/17 00:20:54;;;;;;;22.25;19.77;;;;;;;14.14;100.00;101680.53;5261226;28;20247;-67
2021/09/17 00:23:25;;;;;;;22.75;20.35;;;;;;;14.11;100.00;101683.41;5261652;28;20091;-68
2021/09/17 00:25:57;;;;;;;23.38;20.63;;;;;;;14.09;100.00;101682.69;5259786;28;20416;-67
2021/09/17 00:28:28;;;;;;;26.17;21.48;;;;;;;14.13;100.00;101684.13;5261385;28;20055;-67
2021/09/17 00:31:00;;;;;;;25.10;21.35;;;;;;;14.11;100.00;101686.06;5262009;28;20060;-69
2021/09/17 00:33:31;;;;;;;24.00;21.52;;;;;;;14.14;100.00;101685.78;5260756;28;20350;-68
2021/09/17 00:36:03;;;;;;;26.20;21.70;;;;;;;14.12;100.00;101682.44;5260031;28;20032;-67
2021/09/17 00:38:34;;;;;;;24.27;21.67;;;;;;;14.10;100.00;101677.31;5261663;28;20086;-68
2021/09/17 00:41:05;;;;;;;24.13;21.27;;;;;;;14.09;100.00;101674.78;5261718;28;20060;-67
2021/09/17 00:43:38;;;;;;;23.63;21.13;;;;;;;14.12;100.00;101671.91;5255135;28;20053;-70
2021/09/17 00:46:10;;;;;;;23.00;20.63;;;;;;;14.11;100.00;101662.34;5259128;28;20037;-68
2021/09/17 00:48:41;;;;;;;24.02;21.50;;;;;;;14.10;100.00;101666.78;5261600;28;20037;-69
2021/09/17 00:51:13;;;;;;;24.83;22.15;;;;;;;14.08;100.00;101658.16;5261479;28;20021;-67
2021/09/17 00:53:44;;;;;;;23.13;20.63;;;;;;;14.10;100.00;101666.78;5261565;28;20033;-68
2021/09/17 00:56:17;;;;;;;24.80;22.20;;;;;;;14.09;100.00;101657.22;5264806;28;20025;-68
2021/09/17 00:58:48;;;;;;;24.97;21.20;;;;;;;14.09;100.00;101662.47;5258189;28;20068;-68
2021/09/17 01:01:19;;;;;;;24.58;21.95;;;;;;;14.11;100.00;101670.25;5265188;28;20158;-68
2021/09/17 01:03:51;;;;;;;24.10;21.58;;;;;;;14.12;100.00;101667.47;5265824;28;20020;-68
2021/09/17 01:06:23;;;;;;;25.00;21.42;;;;;;;14.09;100.00;101672.16;5262898;28;20052;-68
2021/09/17 01:08:57;;;;;;;25.57;22.20;;;;;;;14.12;100.00;101666.63;5262589;28;20131;-68
2021/09/17 01:11:28;;;;;;;24.88;21.15;;;;;;;14.10;100.00;101658.88;5265162;28;20188;-67
2021/09/17 01:14:01;;;;;;;23.75;21.25;;;;;;;14.11;100.00;101659.69;5262990;28;20039;-68
2021/09/17 01:16:33;;;;;;;22.80;20.48;;;;;;;14.14;100.00;101656.81;5265277;28;20039;-69
2021/09/17 01:19:04;;;;;;;24.20;21.65;;;;;;;14.16;100.00;101668.03;5264469;28;20036;-67
2021/09/17 01:21:36;;;;;;;25.70;22.90;;;;;;;14.12;100.00;101662.19;5263636;28;20389;-67
2021/09/17 01:24:07;;;;;;;25.95;22.08;;;;;;;14.16;100.00;101661.94;5263706;28;20036;-69
2021/09/17 01:26:38;;;;;;;25.38;21.98;;;;;;;14.17;100.00;101660.94;5264117;28;20127;-67
2021/09/17 01:29:10;;;;;;;24.58;21.92;;;;;;;14.18;100.00;101660.84;5265084;28;20032;-67
2021/09/17 01:31:41;;;;;;;25.05;22.35;;;;;;;14.21;100.00;101652.66;5262930;28;20421;-68
2021/09/17 01:34:17;;;;;;;26.80;22.10;;;;;;;14.24;100.00;101652.38;5264051;28;20028;-67
2021/09/17 01:36:50;;;;;;;25.85;21.95;;;;;;;14.22;100.00;101653.50;5265158;28;20375;-68
2021/09/17 01:39:21;;;;;;;26.52;22.65;;;;;;;14.22;100.00;101650.88;5263459;28;20032;-67
2021/09/17 01:41:53;;;;;;;25.25;21.95;;;;;;;14.19;100.00;101645.84;5262866;28;20024;-68
2021/09/17 01:44:24;;;;;;;29.42;24.10;;;;;;;14.19;100.00;101651.97;5263589;28;20115;-70
2021/09/17 01:46:55;;;;;;;25.35;21.45;;;;;;;14.23;100.00;101648.09;5262975;28;20074;-67
2021/09/17 01:49:27;;;;;;;25.25;22.55;;;;;;;14.23;100.00;101645.44;5264076;28;20036;-69
2021/09/17 01:51:59;;;;;;;25.58;22.85;;;;;;;14.20;100.00;101631.69;5260700;28;20032;-68
2021/09/17 01:54:30;;;;;;;26.42;23.60;;;;;;;14.20;100.00;101640.44;5263145;28;20085;-67
2021/09/17 01:57:03;;;;;;;26.70;23.35;;;;;;;14.23;100.00;101634.06;5263730;28;20384;-67
2021/09/17 01:59:35;;;;;;;25.25;22.63;;;;;;;14.21;100.00;101628.13;5262935;28;20128;-68
2021/09/17 02:02:06;;;;;;;25.70;22.52;;;;;;;14.24;100.00;101625.19;5261159;28;20111;-68
2021/09/17 02:04:38;;;;;;;25.33;22.55;;;;;;;14.22;100.00;101632.41;5261748;28;20137;-68
2021/09/17 02:07:09;;;;;;;28.15;24.13;;;;;;;14.27;100.00;101630.19;5261577;28;20024;-68
2021/09/17 02:09:41;;;;;;;26.42;23.63;;;;;;;14.17;100.00;101624.91;5262667;28;20056;-68
2021/09/17 02:12:13;;;;;;;26.55;23.70;;;;;;;14.19;100.00;101619.50;5262800;28;20028;-68
2021/09/17 02:14:44;;;;;;;26.23;23.52;;;;;;;14.20;100.00;101622.00;5261914;28;20033;-67
2021/09/17 02:17:16;;;;;;;27.30;24.17;;;;;;;14.22;100.00;101622.72;5261904;28;20106;-68
2021/09/17 02:19:48;;;;;;;25.73;23.02;;;;;;;14.24;100.00;101625.19;5262645;28;20047;-68
2021/09/17 02:22:21;;;;;;;25.95;23.25;;;;;;;14.26;100.00;101618.81;5262787;28;20029;-68
2021/09/17 02:24:53;;;;;;;26.85;22.05;;;;;;;14.22;100.00;101611.34;5261699;28;20106;-68
2021/09/17 02:27:24;;;;;;;26.20;22.80;;;;;;;14.24;100.00;101610.22;5263496;28;20083;-67
2021/09/17 02:29:56;;;;;;;24.73;22.05;;;;;;;14.25;100.00;101611.91;5263656;28;20033;-67
2021/09/17 02:32:27;;;;;;;25.77;22.70;;;;;;;14.26;100.00;101615.38;5260679;28;20032;-67
2021/09/17 02:34:58;;;;;;;25.98;23.17;;;;;;;14.28;100.00;101610.78;5263650;28;20025;-68
2021/09/17 02:37:30;;;;;;;28.05;23.75;;;;;;;14.27;100.00;101607.31;5256270;28;20021;-67
2021/09/17 02:40:02;;;;;;;25.80;23.10;;;;;;;14.26;100.00;101604.81;5261798;28;20025;-67
2021/09/17 02:42:33;;;;;;;25.83;23.03;;;;;;;14.29;100.00;101602.75;5262664;28;20453;-68
2021/09/17 02:45:06;;;;;;;29.25;22.80;;;;;;;14.31;100.00;101602.59;5264563;28;20024;-68
2021/09/17 02:47:38;;;;;;;;;;;;;;;14.61;100.00;101599.06;5263000;28;20035;-68
2021/09/17 02:50:10;;;;;;;27.58;21.95;;;;;;;14.29;100.00;101597.47;5261267;28;19912;-68
2021/09/17 02:52:42;;;;;;;26.70;23.33;;;;;;;14.31;100.00;101592.06;5262346;28;20087;-68
2021/09/17 02:55:14;;;;;;;26.52;22.33;;;;;;;14.32;100.00;101594.56;5261697;28;20033;-68
2021/09/17 02:57:45;;;;;;;24.30;21.73;;;;;;;14.33;100.00;101584.88;5261730;28;20029;-68
2021/09/17 03:00:17;;;;;;;26.88;22.50;;;;;;;14.34;100.00;101592.63;5263028;28;20030;-68
2021/09/17 03:02:49;;;;;;;27.95;22.65;;;;;;;14.31;100.00;101587.63;5263015;28;20024;-68
2021/09/17 03:05:20;;;;;;;25.75;22.85;;;;;;;14.32;100.00;101584.03;5261565;28;20115;-68
2021/09/17 03:07:52;;;;;;;26.42;22.48;;;;;;;14.37;100.00;101580.97;5263059;28;20045;-68
2021/09/17 03:10:23;;;;;;;25.80;23.10;;;;;;;14.35;100.00;101577.63;5262275;28;20036;-67
2021/09/17 03:12:54;;;;;;;26.05;22.33;;;;;;;14.36;100.00;101580.16;5260864;28;20013;-68
2021/09/17 03:15:27;;;;;;;26.05;23.20;;;;;;;14.36;100.00;101574.06;5261459;28;20056;-68
2021/09/17 03:17:58;;;;;;;25.17;22.45;;;;;;;14.36;100.00;101574.06;5263752;28;20566;-68
2021/09/17 03:20:30;;;;;;;26.05;23.25;;;;;;;14.38;100.00;101571.25;5262038;28;20032;-68
2021/09/17 03:23:01;;;;;;;26.40;23.58;;;;;;;14.37;100.00;101570.44;5263297;28;20021;-67
2021/09/17 03:25:33;;;;;;;25.52;22.45;;;;;;;14.39;100.00;101568.47;5260956;28;20036;-68
2021/09/17 03:28:05;;;;;;;27.42;23.35;;;;;;;14.37;100.00;101559.88;5262913;28;20021;-68
2021/09/17 03:30:36;;;;;;;26.33;22.83;;;;;;;14.37;100.00;101559.88;5261797;28;20591;-68
2021/09/17 03:33:11;;;;;;;26.30;23.13;;;;;;;14.35;100.00;101556.53;5263144;28;20021;-68
2021/09/17 03:35:44;;;;;;;27.55;23.85;;;;;;;14.40;100.00;101564.06;5263359;28;20029;-68
2021/09/17 03:38:15;;;;;;;25.67;22.98;;;;;;;14.40;100.00;101561.44;5261235;28;20036;-68
2021/09/17 03:40:48;;;;;;;26.77;23.98;;;;;;;14.42;100.00;101554.19;5261871;28;20025;-68
2021/09/17 03:43:19;;;;;;;25.77;22.40;;;;;;;14.41;100.00;101557.81;5260967;28;20398;-68
2021/09/17 03:45:50;;;;;;;25.23;22.52;;;;;;;14.41;100.00;101557.81;5261005;28;20083;-67
2021/09/17 03:48:22;;;;;;;27.05;23.42;;;;;;;14.40;100.00;101556.16;5262076;28;20039;-68
2021/09/17 03:50:56;;;;;;;26.75;22.23;;;;;;;14.42;100.00;101551.56;5261210;28;20395;-67
2021/09/17 03:53:27;;;;;;;26.13;23.13;;;;;;;14.38;100.00;101558.91;5264551;28;20029;-67
2021/09/17 03:55:58;;;;;;;25.83;22.73;;;;;;;14.39;100.00;101546.56;5262049;28;20029;-68
2021/09/17 03:58:30;;;;;;;25.13;22.42;;;;;;;14.39;100.00;101550.03;5264509;28;20482;-68
2021/09/17 04:01:01;;;;;;;26.40;23.20;;;;;;;14.40;100.00;101548.25;5260231;28;20397;-67
2021/09/17 04:03:32;;;;;;;25.38;22.73;;;;;;;14.39;100.00;101550.03;5260284;28;20023;-67
2021/09/17 04:06:04;;;;;;;26.20;22.85;;;;;;;14.40;100.00;101542.97;5259077;28;20025;-67
2021/09/17 04:08:35;;;;;;;26.15;23.30;;;;;;;14.39;100.00;101549.19;5261552;28;20574;-67
2021/09/17 04:11:07;;;;;;;25.98;23.27;;;;;;;14.39;100.00;101538.66;5260781;28;20028;-68
2021/09/17 04:13:38;;;;;;;30.70;24.63;;;;;;;14.39;100.00;101539.47;5261531;28;20029;-67
2021/09/17 04:16:10;;;;;;;25.42;22.67;;;;;;;14.40;100.00;101542.97;5263735;28;20470;-67
2021/09/17 04:18:41;;;;;;;26.05;23.02;;;;;;;14.41;100.00;101544.63;5262373;28;20402;-67
2021/09/17 04:21:12;;;;;;;26.33;23.42;;;;;;;14.41;100.00;101539.38;5261627;28;20028;-67
2021/09/17 04:23:44;;;;;;;26.63;23.00;;;;;;;14.43;100.00;101545.31;5263971;28;20029;-68
2021/09/17 04:26:15;;;;;;;28.05;24.98;;;;;;;14.43;100.00;101538.22;5262316;28;20046;-67
2021/09/17 04:28:47;;;;;;;27.63;24.13;;;;;;;14.46;100.00;101537.97;5264135;28;20044;-67
2021/09/17 04:31:18;;;;;;;28.15;24.98;;;;;;;14.46;100.00;101539.78;5263432;28;20032;-67
2021/09/17 04:33:50;;;;;;;27.65;24.13;;;;;;;14.45;100.00;101532.84;5265325;28;20044;-67
2021/09/17 04:36:21;;;;;;;28.98;24.40;;;;;;;14.46;100.00;101537.97;5265984;28;20051;-67
2021/09/17 04:38:52;;;;;;;30.05;24.95;;;;;;;14.44;100.00;101533.81;5264666;28;20039;-67
2021/09/17 04:41:24;;;;;;;29.42;24.55;;;;;;;14.44;100.00;101536.47;5265187;28;20017;-68
2021/09/17 04:43:55;;;;;;;26.33;23.52;;;;;;;14.43;100.00;101542.69;5265144;28;20025;-67
2021/09/17 04:46:27;;;;;;;30.25;24.75;;;;;;;14.45;100.00;101536.31;5266201;28;20070;-67
2021/09/17 04:48:58;;;;;;;29.48;24.15;;;;;;;14.44;100.00;101528.53;5264395;28;20029;-67
2021/09/17 04:51:31;;;;;;;28.15;24.95;;;;;;;14.46;100.00;101537.97;5264383;28;20020;-67
2021/09/17 04:54:02;;;;;;;27.50;24.13;;;;;;;14.49;100.00;101540.34;5263782;28;20024;-68
2021/09/17 04:56:36;;;;;;;27.13;24.02;;;;;;;14.47;100.00;101539.66;5265072;28;20036;-67
2021/09/17 04:59:08;;;;;;;27.05;23.48;;;;;;;14.47;100.00;101544.06;5266411;28;20040;-67
2021/09/17 05:01:39;;;;;;;27.77;23.98;;;;;;;14.46;100.00;101537.97;5263900;28;20021;-67
2021/09/17 05:04:10;;;;;;;26.25;22.83;;;;;;;14.47;100.00;101551.97;5265145;28;20101;-68
2021/09/17 05:06:42;;;;;;;29.48;24.58;;;;;;;14.47;100.00;101541.44;5269785;28;20024;-67
2021/09/17 05:09:13;;;;;;;27.40;22.73;;;;;;;14.46;100.00;101537.13;5265684;28;20059;-67
2021/09/17 05:11:45;;;;;;;26.80;22.63;;;;;;;14.47;100.00;101538.78;5265765;28;20036;-67
2021/09/17 05:14:16;;;;;;;26.35;23.55;;;;;;;14.47;100.00;101541.44;5264089;28;20024;-68
2021/09/17 05:16:48;;;;;;;27.10;24.20;;;;;;;14.48;100.00;101546.56;5262185;28;20043;-68
2021/09/17 05:19:23;;;;;;;27.45;23.35;;;;;;;14.47;100.00;101536.16;5262711;28;20068;-68
2021/09/17 05:21:57;;;;;;;29.00;22.95;;;;;;;14.53;100.00;101544.38;5265314;28;20107;-71
2021/09/17 05:24:28;;;;;;;29.92;23.17;;;;;;;14.51;100.00;101542.88;5264517;28;20166;-69
2021/09/17 05:27:00;;;;;;;32.78;24.27;;;;;;;14.54;100.00;101540.75;5262947;28;20454;-68
2021/09/17 05:29:31;;;;;;;27.65;24.00;;;;;;;14.54;100.00;101539.94;5263936;28;20020;-69
2021/09/17 05:32:03;;;;;;;29.67;25.33;;;;;;;14.55;100.00;101539.00;5261619;28;20020;-69
2021/09/17 05:34:34;;;;;;;29.42;25.00;;;;;;;14.55;100.00;101539.00;5264681;28;20028;-68
2021/09/17 05:37:06;;;;;;;30.42;25.70;;;;;;;14.54;100.00;101530.22;5264437;28;20029;-69
2021/09/17 05:39:37;;;;;;;29.33;26.13;;;;;;;14.59;100.00;101540.38;5262932;28;20276;-68
2021/09/17 05:42:08;;;;;;;31.42;27.48;;;;;;;14.58;100.00;101528.13;5260719;28;20029;-68
2021/09/17 05:44:40;;;;;;;34.03;27.90;;;;;;;14.60;100.00;101531.47;5258692;28;20024;-69
2021/09/17 05:47:11;;;;;;;34.22;28.38;;;;;;;14.64;100.00;101537.31;5263979;28;20023;-68
2021/09/17 05:49:43;;;;;;;33.33;27.92;;;;;;;14.66;100.00;101535.34;5261382;28;20130;-68
2021/09/17 05:52:15;;;;;;;32.70;27.58;;;;;;;14.67;100.00;101535.22;5263592;28;20021;-68
2021/09/17 05:54:46;;;;;;;33.75;27.25;;;;;;;14.68;100.00;101533.41;5260925;28;20032;-69
2021/09/17 05:57:18;;;;;;;32.83;27.00;;;;;;;14.68;100.00;101526.34;5261681;28;20494;-69
2021/09/17 05:59:49;;;;;;;30.98;26.50;;;;;;;14.70;100.00;101532.31;5263346;28;20036;-68
2021/09/17 06:02:20;;;;;;;34.25;29.13;;;;;;;14.70;100.00;101524.41;5261188;28;20021;-69
2021/09/17 06:04:52;;;;;;;36.85;27.83;;;;;;;14.70;100.00;101528.81;5262635;28;20509;-69
2021/09/17 06:07:23;;;;;;;32.58;26.95;;;;;;;14.69;100.00;101522.72;5262144;28;20033;-67
2021/09/17 06:09:55;;;;;;;31.88;28.48;;;;;;;14.68;100.00;101518.41;5262073;28;20049;-69
2021/09/17 06:12:26;;;;;;;35.03;29.38;;;;;;;14.68;100.00;101521.06;5259958;28;20467;-68
2021/09/17 06:14:57;;;;;;;32.55;27.83;;;;;;;14.70;100.00;101528.81;5261597;28;20051;-67
2021/09/17 06:17:29;;;;;;;32.03;27.70;;;;;;;14.68;100.00;101522.88;5260953;28;20094;-66
2021/09/17 06:20:00;;;;;;;33.35;28.55;;;;;;;14.70;100.00;101529.69;5243066;28;20039;-68
2021/09/17 06:22:32;;;;;;;30.88;26.40;;;;;;;14.75;100.00;101537.16;5251042;28;20024;-66
2021/09/17 06:25:03;;;;;;;32.28;27.35;;;;;;;14.75;100.00;101537.16;5261732;28;20397;-68
2021/09/17 06:27:35;;;;;;;31.42;28.15;;;;;;;14.75;100.00;101537.16;5257870;28;20037;-68
2021/09/17 06:30:07;;;;;;;33.63;27.45;;;;;;;14.80;100.00;101538.41;5254149;28;20067;-67
2021/09/17 06:32:38;;;;;;;34.42;28.98;;;;;;;14.82;100.00;101549.66;5265174;28;20474;-67
2021/09/17 06:35:10;;;;;;;33.00;28.95;;;;;;;14.88;100.00;101542.97;5262551;28;20029;-67
2021/09/17 06:37:46;;;;;;;33.13;28.65;;;;;;;14.93;100.00;101550.47;5262975;28;20079;-67
2021/09/17 06:40:20;;;;;;;34.85;29.35;;;;;;;14.92;100.00;101543.53;5264733;28;20517;-68
2021/09/17 06:42:52;;;;;;;34.95;30.77;;;;;;;14.91;100.00;101547.97;5262653;28;20136;-68
2021/09/17 06:45:23;;;;;;;33.63;29.95;;;;;;;14.98;100.00;101548.25;5264627;28;20029;-68
2021/09/17 06:47:58;;;;;;;33.08;29.48;;;;;;;15.01;100.00;101558.53;5265163;28;20112;-67
2021/09/17 06:50:30;;;;;;;34.50;30.27;;;;;;;15.00;100.00;101547.13;5260201;28;20029;-68
2021/09/17 06:53:02;;;;;;;33.22;29.67;;;;;;;15.08;100.00;101554.34;5263563;28;20032;-67
2021/09/17 06:55:34;;;;;;;35.53;30.83;;;;;;;15.08;100.00;101546.44;5262455;28;20148;-68
2021/09/17 06:58:06;;;;;;;33.72;30.02;;;;;;;15.13;100.00;101546.81;5263923;28;20111;-69
2021/09/17 07:00:38;;;;;;;36.92;30.67;;;;;;;15.16;100.00;101545.72;5264784;28;20027;-68
2021/09/17 07:03:10;;;;;;;37.20;31.70;;;;;;;15.26;100.00;101559.69;5262838;28;20054;-69
2021/09/17 07:05:41;;;;;;;36.20;30.85;;;;;;;15.26;100.00;101547.31;5265508;28;20033;-68
2021/09/17 07:08:13;;;;;;;37.05;30.73;;;;;;;15.31;100.00;101549.56;5253860;28;20045;-68
2021/09/17 07:10:46;;;;;;;33.53;29.95;;;;;;;15.37;100.00;101548.13;5261883;28;20505;-68
2021/09/17 07:13:18;;;;;;;39.90;32.05;;;;;;;15.44;100.00;101543.94;5261545;28;20102;-68
2021/09/17 07:15:49;;;;;;;35.65;31.92;;;;;;;15.47;100.00;101546.31;5259218;28;20085;-67
2021/09/17 07:18:21;;;;;;;41.70;33.78;;;;;;;15.54;100.00;101540.28;5261387;28;20028;-68
2021/09/17 07:20:54;;;;;;;35.42;31.63;;;;;;;15.54;100.00;101534.19;5262998;28;20577;-68
2021/09/17 07:23:25;;;;;;;;;;;;;;;15.90;100.00;101544.88;5260504;28;20474;-69
2021/09/17 07:25:57;;;;;;;33.83;30.17;;;;;;;15.71;100.00;101545.81;5261369;28;19928;-69
2021/09/17 07:28:32;;;;;;;35.95;32.05;;;;;;;15.76;100.00;101544.41;5265105;28;20052;-68
2021/09/17 07:31:03;;;;;;;37.03;31.83;;;;;;;15.78;100.00;101549.53;5260933;28;20469;-69
2021/09/17 07:33:35;;;;;;;37.38;32.15;;;;;;;15.87;100.00;101545.16;5260538;28;20036;-68
2021/09/17 07:36:07;;;;;;;35.73;31.83;;;;;;;15.91;100.00;101550.03;5263806;28;20020;-69
2021/09/17 07:38:38;;;;;;;36.25;32.55;;;;;;;15.95;100.00;101551.41;5262097;28;20302;-68
2021/09/17 07:41:10;;;;;;;39.13;33.38;;;;;;;16.05;100.00;101549.50;5260258;28;20561;-68
2021/09/17 07:43:41;;;;;;;41.47;35.65;;;;;;;16.02;100.00;101551.63;5261903;28;20012;-68
2021/09/17 07:46:13;;;;;;;39.90;33.85;;;;;;;16.10;100.00;101553.50;5260971;28;20029;-67
2021/09/17 07:48:44;;;;;;;36.38;32.47;;;;;;;16.19;100.00;101560.56;5261567;28;20501;-69
2021/09/17 07:51:15;;;;;;;38.20;33.60;;;;;;;16.25;100.00;101541.44;5262522;28;20109;-68
2021/09/17 07:53:47;;;;;;;39.47;35.17;;;;;;;16.33;100.00;101552.13;5268898;28;20123;-69
2021/09/17 07:56:18;;;;;;;38.00;33.55;;;;;;;16.38;100.00;101554.31;5264081;28;20555;-69
2021/09/17 07:58:50;;;;;;;40.05;34.70;;;;;;;16.40;100.00;101560.25;5262367;28;20020;-68
2021/09/17 08:01:21;;;;;;;38.28;34.33;;;;;;;16.40;100.00;101549.69;5260324;28;20033;-68
2021/09/17 08:03:53;;;;;;;39.92;33.33;;;;;;;16.44;100.00;101556.34;5264243;28;20024;-70
2021/09/17 08:06:24;;;;;;;37.75;33.85;;;;;;;16.48;100.00;101549.78;5265384;28;20029;-68
2021/09/17 08:08:55;;;;;;;39.10;35.00;;;;;;;16.48;100.00;101549.78;5268027;28;20052;-69
2021/09/17 08:11:27;;;;;;;38.38;33.35;;;;;;;16.56;100.00;101552.50;5263150;28;20116;-68
2021/09/17 08:13:58;;;;;;;38.60;34.20;;;;;;;16.66;100.00;101563.81;5251114;28;20032;-67
2021/09/17 08:16:30;;;;;;;37.58;33.58;;;;;;;16.72;100.00;101554.44;5261114;28;20040;-69
2021/09/17 08:19:03;;;;;;;40.65;34.63;;;;;;;16.80;100.00;101543.97;5259234;28;20594;-69
2021/09/17 08:21:41;;;;;;;40.15;35.20;;;;;;;16.90;100.00;101557.13;5266653;28;20029;-68
2021/09/17 08:24:15;;;;;;;38.58;33.58;;;;;;;17.01;100.00;101551.56;5244711;28;20021;-68
2021/09/17 08:26:50;;;;;;;37.95;33.80;;;;;;;17.12;100.00;101550.47;5265748;28;20040;-69
2021/09/17 08:29:22;;;;;;;39.00;34.75;;;;;;;17.09;100.00;101548.97;5265398;28;20036;-68
2021/09/17 08:31:54;;;;;;;37.58;33.53;;;;;;;17.22;100.00;101554.66;5264605;28;20021;-68
2021/09/17 08:34:26;;;;;;;37.88;33.85;;;;;;;17.34;100.00;101549.09;5243723;28;20068;-69
2021/09/17 08:36:57;;;;;;;38.13;34.03;;;;;;;17.40;100.00;101551.13;5265543;28;20025;-67
2021/09/17 08:39:29;;;;;;;38.08;33.70;;;;;;;17.51;100.00;101542.91;5267266;28;20053;-69
2021/09/17 08:42:00;;;;;;;43.97;35.03;;;;;;;17.55;100.00;101540.78;5250518;28;20025;-70
2021/09/17 08:44:32;;;;;;;38.10;33.27;;;;;;;17.64;100.00;101543.28;5267314;28;20530;-67
2021/09/17 08:47:05;;;;;;;36.53;32.47;;;;;;;17.82;100.00;101548.53;5267339;28;20025;-68
2021/09/17 08:49:38;;;;;;;36.42;32.53;;;;;;;17.95;100.00;101553.38;5265351;28;20033;-68
2021/09/17 08:52:10;;;;;;;35.88;32.05;;;;;;;18.05;100.00;101550.59;5270233;28;20047;-68
2021/09/17 08:54:42;;;;;;;37.08;32.90;;;;;;;18.10;100.00;101553.59;5267571;28;20028;-68
2021/09/17 08:57:14;;;;;;;36.40;32.43;;;;;;;18.22;100.00;101542.53;5268254;28;20024;-68
2021/09/17 08:59:45;;;;;;;40.20;33.35;;;;;;;18.27;100.00;101543.84;5269301;28;20033;-69
2021/09/17 09:02:29;;;;;;;36.72;32.83;;;;;;;18.42;100.00;101543.03;5266700;28;20020;-68
2021/09/17 09:05:03;;;;;;;36.72;31.40;;;;;;;18.52;100.00;101542.88;5267910;28;20020;-68
2021/09/17 09:07:38;;;;;;;34.63;30.63;;;;;;;18.65;100.00;101540.56;5268417;28;20060;-69
2021/09/17 09:10:14;;;;;;;36.78;31.73;;;;;;;18.78;100.00;101540.09;5267289;28;20474;-68
2021/09/17 09:12:51;;;;;;;36.47;30.50;;;;;;;19.02;100.00;101539.25;5265450;28;20478;-69
2021/09/17 09:15:34;;;;;;;37.63;30.90;;;;;;;19.14;100.00;101545.84;5267894;28;20516;-68
2021/09/17 09:18:06;;;;;;;36.57;31.53;;;;;;;19.18;100.00;101538.38;5268483;28;20029;-68
2021/09/17 09:20:42;;;;;;;34.00;29.95;;;;;;;19.30;100.00;101542.31;5263664;28;20302;-68
2021/09/17 09:23:29;;;;;;;33.40;28.90;;;;;;;19.53;100.00;101539.75;5259037;28;20017;-68
2021/09/17 09:26:01;;;;;;;36.28;28.70;;;;;;;19.55;100.00;101531.63;5267035;28;20036;-69
2021/09/17 09:28:34;;;;;;;39.55;33.13;;;;;;;19.62;100.00;101533.47;5271932;28;20032;-69
2021/09/17 09:31:14;;;;;;;37.65;32.80;;;;;;;19.81;100.00;101534.00;5266921;28;20024;-68
2021/09/17 09:33:48;;;;;;;36.60;30.02;;;;;;;19.85;100.00;101530.84;5266606;28;20108;-69
2021/09/17 09:36:22;;;;;;;36.45;30.10;;;;;;;19.98;100.00;101527.63;5267583;28;20032;-68
2021/09/17 09:38:55;;;;;;;34.75;29.17;;;;;;;20.02;100.00;101528.94;5267209;28;20131;-68
2021/09/17 09:41:31;;;;;;;;;;;;;;;20.42;100.00;101529.66;5266818;28;20054;-69
2021/09/17 09:44:19;;;;;;;31.55;27.80;;;;;;;20.37;100.00;101529.34;5266058;28;19921;-68
2021/09/17 09:46:50;;;;;;;37.42;29.83;;;;;;;20.28;100.00;101531.25;5267066;28;20044;-69
2021/09/17 09:49:22;;;;;;;36.83;29.00;;;;;;;20.39;100.00;101536.16;5275530;28;20032;-71
2021/09/17 09:52:02;;;;;;;37.35;29.33;;;;;;;20.57;100.00;101532.38;5266227;28;20039;-69
2021/09/17 09:54:35;;;;;;;40.33;30.25;;;;;;;20.59;100.00;101538.38;5266109;28;20032;-69
2021/09/17 09:57:07;;;;;;;38.90;29.00;;;;;;;20.58;100.00;101536.72;5267021;28;20030;-68
2021/09/17 09:59:38;;;;;;;34.97;25.90;;;;;;;20.71;100.00;101538.75;5267102;28;20233;-68
2021/09/17 10:02:11;;;;;;;32.67;26.30;;;;;;;20.61;100.00;101534.53;5265952;28;20028;-70
2021/09/17 10:04:44;;;;;;;31.90;26.23;;;;;;;20.72;100.00;101537.75;5267125;28;20036;-68
2021/09/17 10:07:17;;;;;;;27.48;24.23;;;;;;;20.84;100.00;101542.47;5266350;28;20032;-68
2021/09/17 10:09:49;;;;;;;29.27;23.90;;;;;;;20.87;100.00;101544.78;5265318;28;20053;-69
2021/09/17 10:12:21;;;;;;;27.80;23.63;;;;;;;20.86;100.00;101544.94;5266435;28;20036;-71
2021/09/17 10:14:54;;;;;;;27.53;23.93;;;;;;;20.92;100.00;101533.59;5264147;28;20036;-69
2021/09/17 10:17:32;;;;;;;31.92;24.20;;;;;;;21.08;100.00;101541.41;5264654;28;20025;-68
2021/09/17 10:20:09;;;;;;;29.92;23.60;;;;;;;21.12;100.00;101539.22;5267052;28;20058;-69
2021/09/17 10:22:45;;;;;;;24.65;21.20;;;;;;;21.06;100.00;101535.44;5265171;28;20035;-68
2021/09/17 10:25:22;;;;;;;20.20;17.98;;;;;;;21.26;100.00;101525.06;5265652;28;20421;-68
2021/09/17 10:28:15;;;;;;;21.05;18.60;;;;;;;21.34;100.00;101534.84;5265259;28;20021;-68
2021/09/17 10:30:46;;;;;;;22.70;19.50;;;;;;;21.31;100.00;101537.84;5265171;28;20036;-68
2021/09/17 10:33:26;;;;;;;23.73;20.37;;;;;;;21.46;100.00;101535.19;5257744;28;20075;-69
2021/09/17 10:35:58;;;;;;;24.02;19.83;;;;;;;21.47;100.00;101543.00;5266871;28;20035;-69
2021/09/17 10:38:31;;;;;;;24.40;21.30;;;;;;;21.46;100.00;101536.03;5266527;28;20037;-68
2021/09/17 10:41:05;;;;;;;24.52;20.63;;;;;;;21.48;100.00;101538.50;5264863;28;20036;-68
2021/09/17 10:43:46;;;;;;;23.67;19.95;;;;;;;21.69;100.00;101537.75;5265317;28;20024;-69
2021/09/17 10:46:21;;;;;;;26.80;22.50;;;;;;;21.70;100.00;101536.72;5266581;28;20058;-68
2021/09/17 10:48:57;;;;;;;26.75;21.48;;;;;;;21.54;100.00;101532.44;5265272;28;20058;-68
2021/09/17 10:51:39;;;;;;;24.02;19.48;;;;;;;21.88;100.00;101539.81;5262133;28;20032;-68
2021/09/17 10:54:19;;;;;;;21.23;18.92;;;;;;;21.84;100.00;101539.38;5264101;28;20027;-69
2021/09/17 10:56:50;;;;;;;21.48;17.27;;;;;;;22.02;100.00;101527.47;5264640;28;20029;-68
2021/09/17 10:59:29;;;;;;;16.83;14.77;;;;;;;22.44;100.00;101533.88;5265436;28;20032;-69
2021/09/17 11:02:07;;;;;;;17.67;15.88;;;;;;;22.22;100.00;101530.38;5263662;28;20129;-70
2021/09/17 11:04:44;;;;;;;17.65;15.60;;;;;;;22.40;100.00;101533.44;5261985;28;20731;-68
2021/09/17 11:07:32;;;;;;;17.27;13.85;;;;;;;22.29;100.00;101532.09;5259709;28;20020;-68
2021/09/17 11:10:05;;;;;;;15.25;13.70;;;;;;;22.08;100.00;101538.19;5259917;28;20414;-69
2021/09/17 11:12:41;;;;;;;16.00;14.30;;;;;;;22.03;100.00;101532.59;5261011;28;20069;-68
2021/09/17 11:15:15;;;;;;;17.45;15.65;;;;;;;22.23;100.00;101527.50;5264505;28;20500;-69
2021/09/17 11:17:58;;;;;;;15.68;14.05;;;;;;;22.33;100.00;101524.53;5264376;28;20044;-71
2021/09/17 11:20:31;;;;;;;14.90;13.32;;;;;;;22.49;100.00;101521.59;5260359;28;20291;-69
2021/09/17 11:23:05;;;;;;;12.50;11.15;;;;;;;22.48;100.00;101519.94;5262694;28;20028;-68
2021/09/17 11:25:38;;;;;;;13.75;12.32;;;;;;;22.53;100.00;101512.16;5261924;28;20116;-67